Terminal Aerodrome Forecast
Issued by NWS

Home | Current Version | Previous Version | Text Only | Print | Product List | Glossary On
Versions: 1 2 3 4 5 6 7 8 9 10 11 12 13 14 15
000
FTUS46 KPDT 201100
TAFDLS
TAF
KDLS 201120Z 2012/2112 29006KT P6SM SCT200
     FM201500 31006KT P6SM SCT120
     FM202100 32008KT P6SM SCT150
     FM210900 VRB04KT P6SM BKN100=

USA.gov is the U.S. government's official web portal to all federal, state and local government web resources and services.